Fairway, Kansas
Current Conditions -  °F | °C
As of 6:54 AM on Thursday 30 Oct 2014 (Local Time) from KMKC Reporting Station
Overcast Overcast  
Wind Chill: 52°   Ceiling: 10000
Heat Index: 52°   Visibility: 10mi
Dew Point: 40°   Wind: 0mph
Humidity: 63%   Direction: NA
Pressure: 30"   Gusts: NA
Location:  39.0312°N, 94.6315°W
Report Text: KMKC 301154Z 00000KT 10SM OVC100 11/04 A3000 RMK AO2 SLP159 T01110044 10111 20083 55011
Loading
Personal Weather Stations






























Interactive Weather Map
Tropical Storm Tracking
New forecast layout! Learn more

10-Day Weather Forecast

Advertisements
Track Severe Weather on mobile